sensor_id;sensor_type;location;lat;lon;timestamp;temperature;humidity
18268;DHT22;9260;49.998;19.880;2024-03-29T00:06:39;5.60;1.00
18268;DHT22;9260;49.998;19.880;2024-03-29T00:16:41;5.70;1.00
18268;DHT22;9260;49.998;19.880;2024-03-29T00:26:42;5.60;1.00
18268;DHT22;9260;49.998;19.880;2024-03-29T00:36:45;5.40;1.00
18268;DHT22;9260;49.998;19.880;2024-03-29T00:46:46;5.30;1.00
18268;DHT22;9260;49.998;19.880;2024-03-29T00:56:49;5.60;1.00
18268;DHT22;9260;49.998;19.880;2024-03-29T01:06:50;5.20;1.00
18268;DHT22;9260;49.998;19.880;2024-03-29T01:16:53;5.20;1.00
18268;DHT22;9260;49.998;19.880;2024-03-29T01:26:54;4.90;1.00
18268;DHT22;9260;49.998;19.880;2024-03-29T01:36:57;4.90;1.00
18268;DHT22;9260;49.998;19.880;2024-03-29T01:46:58;4.40;1.00
18268;DHT22;9260;49.998;19.880;2024-03-29T01:57:02;4.00;1.00
18268;DHT22;9260;49.998;19.880;2024-03-29T02:07:04;4.70;1.00
18268;DHT22;9260;49.998;19.880;2024-03-29T02:17:08;3.30;1.00
18268;DHT22;9260;49.998;19.880;2024-03-29T02:27:11;3.40;1.00
18268;DHT22;9260;49.998;19.880;2024-03-29T02:37:13;5.30;1.00
18268;DHT22;9260;49.998;19.880;2024-03-29T02:47:17;3.20;1.00
18268;DHT22;9260;49.998;19.880;2024-03-29T02:57:19;3.20;1.00
18268;DHT22;9260;49.998;19.880;2024-03-29T03:07:23;3.00;1.00
18268;DHT22;9260;49.998;19.880;2024-03-29T03:17:42;2.80;1.00
18268;DHT22;9260;49.998;19.880;2024-03-29T03:27:45;3.00;1.00
18268;DHT22;9260;49.998;19.880;2024-03-29T03:37:48;2.90;1.00
18268;DHT22;9260;49.998;19.880;2024-03-29T03:47:51;2.70;1.00
18268;DHT22;9260;49.998;19.880;2024-03-29T03:57:53;2.50;1.00
18268;DHT22;9260;49.998;19.880;2024-03-29T04:07:57;1.90;1.00
18268;DHT22;9260;49.998;19.880;2024-03-29T04:18:00;1.50;1.00
18268;DHT22;9260;49.998;19.880;2024-03-29T04:28:04;1.40;1.00
18268;DHT22;9260;49.998;19.880;2024-03-29T04:38:06;0.70;1.00
18268;DHT22;9260;49.998;19.880;2024-03-29T04:48:10;0.90;1.00
18268;DHT22;9260;49.998;19.880;2024-03-29T04:58:12;0.70;1.00
18268;DHT22;9260;49.998;19.880;2024-03-29T05:08:15;0.90;1.00
18268;DHT22;9260;49.998;19.880;2024-03-29T05:18:18;1.40;1.00
18268;DHT22;9260;49.998;19.880;2024-03-29T05:28:22;1.90;1.00
18268;DHT22;9260;49.998;19.880;2024-03-29T05:38:24;2.40;1.00
18268;DHT22;9260;49.998;19.880;2024-03-29T05:48:27;2.60;1.00
18268;DHT22;9260;49.998;19.880;2024-03-29T05:58:30;3.70;1.00
18268;DHT22;9260;49.998;19.880;2024-03-29T06:08:34;5.50;1.00
18268;DHT22;9260;49.998;19.880;2024-03-29T06:18:36;9.20;1.00
18268;DHT22;9260;49.998;19.880;2024-03-29T06:28:39;12.70;1.00
18268;DHT22;9260;49.998;19.880;2024-03-29T06:38:41;16.10;1.00
18268;DHT22;9260;49.998;19.880;2024-03-29T06:48:45;19.20;1.00
18268;DHT22;9260;49.998;19.880;2024-03-29T06:58:47;21.50;1.00
18268;DHT22;9260;49.998;19.880;2024-03-29T07:08:50;23.10;1.00
18268;DHT22;9260;49.998;19.880;2024-03-29T07:18:53;25.10;1.00
18268;DHT22;9260;49.998;19.880;2024-03-29T07:28:56;26.60;1.00
18268;DHT22;9260;49.998;19.880;2024-03-29T07:38:59;28.30;1.00
18268;DHT22;9260;49.998;19.880;2024-03-29T07:49:03;30.10;1.00
18268;DHT22;9260;49.998;19.880;2024-03-29T07:59:05;31.40;1.00
18268;DHT22;9260;49.998;19.880;2024-03-29T08:09:10;34.00;1.00
18268;DHT22;9260;49.998;19.880;2024-03-29T08:19:14;35.90;1.00
18268;DHT22;9260;49.998;19.880;2024-03-29T08:29:18;36.90;1.00
18268;DHT22;9260;49.998;19.880;2024-03-29T08:39:20;37.80;1.00
18268;DHT22;9260;49.998;19.880;2024-03-29T08:49:23;39.40;1.00
18268;DHT22;9260;49.998;19.880;2024-03-29T08:59:26;38.80;1.00
18268;DHT22;9260;49.998;19.880;2024-03-29T09:09:30;40.90;1.00
18268;DHT22;9260;49.998;19.880;2024-03-29T09:19:33;40.70;1.00
18268;DHT22;9260;49.998;19.880;2024-03-29T09:29:37;40.40;1.00
18268;DHT22;9260;49.998;19.880;2024-03-29T09:39:39;41.80;1.00
18268;DHT22;9260;49.998;19.880;2024-03-29T09:49:42;43.60;1.00
18268;DHT22;9260;49.998;19.880;2024-03-29T09:59:46;45.00;1.00
18268;DHT22;9260;49.998;19.880;2024-03-29T10:09:49;48.30;1.00
18268;DHT22;9260;49.998;19.880;2024-03-29T10:19:53;48.20;1.00
18268;DHT22;9260;49.998;19.880;2024-03-29T10:29:56;49.70;1.00
18268;DHT22;9260;49.998;19.880;2024-03-29T10:40:00;50.30;1.00
18268;DHT22;9260;49.998;19.880;2024-03-29T10:50:04;50.90;1.00
18268;DHT22;9260;49.998;19.880;2024-03-29T11:00:08;47.60;1.00
18268;DHT22;9260;49.998;19.880;2024-03-29T11:10:17;47.40;1.00
18268;DHT22;9260;49.998;19.880;2024-03-29T11:20:29;48.10;1.00
18268;DHT22;9260;49.998;19.880;2024-03-29T11:30:44;47.80;1.00
18268;DHT22;9260;49.998;19.880;2024-03-29T11:40:54;44.40;1.00
18268;DHT22;9260;49.998;19.880;2024-03-29T11:51:01;44.70;1.00
18268;DHT22;9260;49.998;19.880;2024-03-29T12:01:04;47.20;1.00
18268;DHT22;9260;49.998;19.880;2024-03-29T12:11:08;44.80;1.00
18268;DHT22;9260;49.998;19.880;2024-03-29T12:21:11;41.30;1.00
18268;DHT22;9260;49.998;19.880;2024-03-29T12:31:17;44.20;1.00
18268;DHT22;9260;49.998;19.880;2024-03-29T12:41:19;46.40;1.00
18268;DHT22;9260;49.998;19.880;2024-03-29T12:51:27;45.40;1.00
18268;DHT22;9260;49.998;19.880;2024-03-29T13:01:30;43.20;1.00
18268;DHT22;9260;49.998;19.880;2024-03-29T13:11:33;42.10;1.00
18268;DHT22;9260;49.998;19.880;2024-03-29T13:21:36;39.80;1.00
18268;DHT22;9260;49.998;19.880;2024-03-29T13:31:39;37.30;1.00
18268;DHT22;9260;49.998;19.880;2024-03-29T13:41:41;36.50;1.00
18268;DHT22;9260;49.998;19.880;2024-03-29T13:51:45;33.50;1.00
18268;DHT22;9260;49.998;19.880;2024-03-29T14:01:47;31.70;1.00
18268;DHT22;9260;49.998;19.880;2024-03-29T14:11:50;28.10;1.00
18268;DHT22;9260;49.998;19.880;2024-03-29T14:21:53;23.40;1.00
18268;DHT22;9260;49.998;19.880;2024-03-29T14:31:57;21.90;1.00
18268;DHT22;9260;49.998;19.880;2024-03-29T14:41:59;21.10;1.00
18268;DHT22;9260;49.998;19.880;2024-03-29T14:52:07;20.30;1.00
18268;DHT22;9260;49.998;19.880;2024-03-29T15:02:09;19.40;1.00
18268;DHT22;9260;49.998;19.880;2024-03-29T15:12:12;18.00;1.00
18268;DHT22;9260;49.998;19.880;2024-03-29T15:22:15;17.80;1.00
18268;DHT22;9260;49.998;19.880;2024-03-29T15:32:18;17.30;1.00
18268;DHT22;9260;49.998;19.880;2024-03-29T15:42:21;16.90;1.00
18268;DHT22;9260;49.998;19.880;2024-03-29T15:52:24;16.70;1.00
18268;DHT22;9260;49.998;19.880;2024-03-29T16:02:26;16.30;1.00
18268;DHT22;9260;49.998;19.880;2024-03-29T16:12:30;15.60;1.00
18268;DHT22;9260;49.998;19.880;2024-03-29T16:22:32;15.30;1.00
18268;DHT22;9260;49.998;19.880;2024-03-29T16:32:35;14.90;1.00
18268;DHT22;9260;49.998;19.880;2024-03-29T16:42:38;15.00;1.00
18268;DHT22;9260;49.998;19.880;2024-03-29T16:52:41;14.00;1.00
18268;DHT22;9260;49.998;19.880;2024-03-29T17:02:44;12.90;1.00
18268;DHT22;9260;49.998;19.880;2024-03-29T17:12:48;12.70;1.00
18268;DHT22;9260;49.998;19.880;2024-03-29T17:22:50;11.90;1.00
18268;DHT22;9260;49.998;19.880;2024-03-29T17:32:54;10.70;1.00
18268;DHT22;9260;49.998;19.880;2024-03-29T17:42:57;10.80;1.00
18268;DHT22;9260;49.998;19.880;2024-03-29T17:53:00;10.00;1.00
18268;DHT22;9260;49.998;19.880;2024-03-29T18:03:02;9.90;1.00
18268;DHT22;9260;49.998;19.880;2024-03-29T18:13:07;9.30;1.00
18268;DHT22;9260;49.998;19.880;2024-03-29T18:23:10;9.10;1.00
18268;DHT22;9260;49.998;19.880;2024-03-29T18:33:13;8.80;1.00
18268;DHT22;9260;49.998;19.880;2024-03-29T18:43:16;8.70;1.00
18268;DHT22;9260;49.998;19.880;2024-03-29T18:53:20;8.50;1.00
18268;DHT22;9260;49.998;19.880;2024-03-29T19:03:22;8.70;1.00
18268;DHT22;9260;49.998;19.880;2024-03-29T19:13:26;8.40;1.00
18268;DHT22;9260;49.998;19.880;2024-03-29T19:23:28;8.60;1.00
18268;DHT22;9260;49.998;19.880;2024-03-29T19:33:33;8.70;1.00
18268;DHT22;9260;49.998;19.880;2024-03-29T19:43:35;8.60;1.00
18268;DHT22;9260;49.998;19.880;2024-03-29T19:53:38;9.70;1.00
18268;DHT22;9260;49.998;19.880;2024-03-29T20:03:41;8.50;1.00
18268;DHT22;9260;49.998;19.880;2024-03-29T20:13:45;8.50;1.00
18268;DHT22;9260;49.998;19.880;2024-03-29T20:23:47;8.00;1.00
18268;DHT22;9260;49.998;19.880;2024-03-29T20:33:51;8.20;1.00
18268;DHT22;9260;49.998;19.880;2024-03-29T20:43:54;7.90;1.00
18268;DHT22;9260;49.998;19.880;2024-03-29T20:53:57;7.70;1.00
18268;DHT22;9260;49.998;19.880;2024-03-29T21:04:00;7.60;1.00
18268;DHT22;9260;49.998;19.880;2024-03-29T21:14:21;7.70;1.00
18268;DHT22;9260;49.998;19.880;2024-03-29T21:24:23;7.80;1.00
18268;DHT22;9260;49.998;19.880;2024-03-29T21:34:27;8.00;1.00
18268;DHT22;9260;49.998;19.880;2024-03-29T21:44:29;7.20;1.00
18268;DHT22;9260;49.998;19.880;2024-03-29T21:54:34;7.00;1.00
18268;DHT22;9260;49.998;19.880;2024-03-29T22:04:36;6.80;1.00
18268;DHT22;9260;49.998;19.880;2024-03-29T22:14:40;6.40;1.00
18268;DHT22;9260;49.998;19.880;2024-03-29T22:24:43;6.20;1.00
18268;DHT22;9260;49.998;19.880;2024-03-29T22:34:46;5.90;1.00
18268;DHT22;9260;49.998;19.880;2024-03-29T22:44:48;5.60;1.00
18268;DHT22;9260;49.998;19.880;2024-03-29T22:54:52;5.60;1.00
18268;DHT22;9260;49.998;19.880;2024-03-29T23:04:54;5.20;1.00
18268;DHT22;9260;49.998;19.880;2024-03-29T23:14:58;5.00;1.00
18268;DHT22;9260;49.998;19.880;2024-03-29T23:25:00;5.00;1.00
18268;DHT22;9260;49.998;19.880;2024-03-29T23:35:04;5.30;1.00
18268;DHT22;9260;49.998;19.880;2024-03-29T23:45:06;4.80;1.00
18268;DHT22;9260;49.998;19.880;2024-03-29T23:55:10;4.50;1.00
